Time;durP1;ratioP1;P1;durP2;ratioP2;P2;SDS_P1;SDS_P2;PMS_P1;PMS_P2;Temp;Humidity;BMP_temperature;BMP_pressure;BME280_temperature;BME280_humidity;BME280_pressure;Samples;Min_cycle;Max_cycle;Signal;HPM_P1;HPM_P2
2022/06/20 00:01:32;;;;;;;2.40;2.07;;;20.40;65.60;;;;;;5075012;28;20459;-71
2022/06/20 00:03:58;;;;;;;3.00;2.57;;;20.40;64.50;;;;;;5075157;28;20464;-72
2022/06/20 00:06:26;;;;;;;6.70;2.60;;;20.40;64.90;;;;;;5075083;28;20444;-72
2022/06/20 00:08:53;;;;;;;2.47;1.70;;;20.40;65.10;;;;;;5078248;28;20455;-72
2022/06/20 00:11:22;;;;;;;2.97;2.20;;;20.40;65.30;;;;;;5073648;28;20466;-72
2022/06/20 00:13:54;;;;;;;4.43;2.13;;;20.40;65.10;;;;;;5073437;28;20484;-71
2022/06/20 00:16:22;;;;;;;4.60;2.30;;;20.40;65.10;;;;;;5073528;28;20428;-72
2022/06/20 00:18:49;;;;;;;4.83;2.60;;;20.40;64.80;;;;;;5073139;28;20449;-72
2022/06/20 00:21:19;;;;;;;3.63;2.70;;;20.40;64.80;;;;;;5073365;28;20455;-71
2022/06/20 00:23:46;;;;;;;4.93;2.87;;;20.40;64.80;;;;;;5073080;28;20838;-72
2022/06/20 00:26:14;;;;;;;4.37;2.50;;;20.40;65.00;;;;;;5073525;28;20445;-72
2022/06/20 00:28:41;;;;;;;5.30;3.07;;;20.40;65.40;;;;;;5073347;28;20545;-72
2022/06/20 00:31:10;;;;;;;4.03;3.57;;;20.40;65.80;;;;;;5073385;28;20429;-71
2022/06/20 00:33:37;;;;;;;4.53;2.93;;;20.40;65.80;;;;;;5073224;28;20461;-72
2022/06/20 00:36:05;;;;;;;5.93;3.30;;;20.40;65.60;;;;;;5073362;28;20449;-72
2022/06/20 00:38:32;;;;;;;5.53;2.80;;;20.40;65.60;;;;;;5073261;28;20441;-72
2022/06/20 00:41:02;;;;;;;4.30;3.30;;;20.40;66.10;;;;;;5072853;28;20945;-72
2022/06/20 00:43:36;;;;;;;5.60;3.10;;;20.40;66.10;;;;;;5073227;28;20470;-72
2022/06/20 00:46:07;;;;;;;4.07;2.50;;;20.40;66.00;;;;;;5073344;28;20442;-72
2022/06/20 00:48:41;;;;;;;6.20;3.50;;;20.30;65.90;;;;;;5073266;28;20429;-72
2022/06/20 00:51:15;;;;;;;4.47;3.20;;;20.30;66.00;;;;;;5073164;28;20424;-72
2022/06/20 00:53:45;;;;;;;7.40;3.43;;;20.30;66.30;;;;;;5073015;28;20838;-71
2022/06/20 00:56:18;;;;;;;5.50;3.80;;;20.30;66.40;;;;;;5073580;28;20450;-72
2022/06/20 00:58:53;;;;;;;8.50;4.60;;;20.20;66.60;;;;;;5073202;28;20433;-72
2022/06/20 01:01:26;;;;;;;6.80;4.03;;;20.00;66.60;;;;;;5073244;28;20433;-72
2022/06/20 01:03:59;;;;;;;6.40;3.77;;;19.80;67.60;;;;;;5072701;28;20467;-71
2022/06/20 01:06:29;;;;;;;8.50;4.70;;;19.50;69.00;;;;;;5073142;28;20796;-72
2022/06/20 01:09:02;;;;;;;9.97;5.00;;;19.30;70.90;;;;;;5073204;28;20504;-72
2022/06/20 01:11:39;;;;;;;6.17;4.50;;;19.10;72.20;;;;;;5072810;28;20942;-72
2022/06/20 01:14:23;;;;;;;8.37;5.00;;;18.90;73.70;;;;;;5073080;28;20464;-71
2022/06/20 01:16:53;;;;;;;7.83;5.90;;;18.60;74.80;;;;;;5074276;28;20424;-72
2022/06/20 01:19:33;;;;;;;8.47;6.00;;;18.40;77.20;;;;;;5076384;28;20437;-72
2022/06/20 01:22:02;;;;;;;6.70;5.73;;;18.40;79.20;;;;;;5076097;28;20803;-71
2022/06/20 01:24:33;;;;;;;9.37;5.87;;;18.30;79.80;;;;;;5076245;28;20488;-72
2022/06/20 01:27:16;;;;;;;9.10;5.37;;;18.30;80.90;;;;;;5076224;28;20452;-72
2022/06/20 01:29:43;;;;;;;7.30;5.30;;;18.40;81.40;;;;;;5075893;28;20926;-71
2022/06/20 01:32:11;;;;;;;10.63;5.80;;;18.40;81.60;;;;;;5077652;28;20839;-71
2022/06/20 01:34:38;;;;;;;8.67;5.00;;;18.60;81.70;;;;;;5076194;28;20440;-71
2022/06/20 01:37:23;;;;;;;7.20;5.03;;;18.70;82.10;;;;;;5076175;28;20449;-72
2022/06/20 01:39:51;;;;;;;5.93;4.67;;;18.70;81.60;;;;;;5075712;28;20906;-72
2022/06/20 01:42:19;;;;;;;7.50;5.73;;;18.80;81.80;;;;;;5075579;28;20974;-72
2022/06/20 01:44:48;;;;;;;6.07;4.40;;;18.90;81.50;;;;;;5076047;28;20477;-71
2022/06/20 01:47:15;;;;;;;7.87;4.80;;;18.90;81.20;;;;;;5076000;28;20459;-72
2022/06/20 01:49:45;;;;;;;7.73;5.30;;;19.00;81.40;;;;;;5075977;28;20468;-72
2022/06/20 01:52:18;;;;;;;9.00;4.77;;;19.10;81.80;;;;;;5075755;28;20504;-71
2022/06/20 01:54:49;;;;;;;8.90;5.57;;;19.10;81.10;;;;;;5075221;28;20856;-72
2022/06/20 01:57:17;;;;;;;6.30;5.67;;;19.20;81.40;;;;;;5075725;28;20454;-72
2022/06/20 01:59:48;;;;;;;9.60;5.00;;;19.20;81.10;;;;;;5075750;28;20460;-72
2022/06/20 02:02:15;;;;;;;6.23;5.40;;;19.20;80.60;;;;;;5075609;28;20468;-71
2022/06/20 02:04:43;;;;;;;7.30;4.70;;;19.30;81.60;;;;;;5075199;28;20857;-71
2022/06/20 02:07:11;;;;;;;6.43;5.40;;;19.30;81.00;;;;;;5075584;28;20452;-72
2022/06/20 02:09:40;;;;;;;5.40;4.70;;;19.30;80.90;;;;;;5075551;28;20441;-72
2022/06/20 02:12:08;;;;;;;7.90;4.60;;;19.30;81.00;;;;;;5075032;28;20819;-71
2022/06/20 02:14:39;;;;;;;7.13;6.30;;;19.20;80.40;;;;;;5075129;28;20452;-72
2022/06/20 02:17:12;;;;;;;5.40;4.70;;;19.20;80.60;;;;;;5075647;28;20433;-72
2022/06/20 02:19:46;;;;;;;8.87;6.13;;;19.20;80.90;;;;;;5075225;28;20429;-72
2022/06/20 02:22:16;;;;;;;5.87;4.90;;;19.10;80.70;;;;;;5075693;28;20439;-73
2022/06/20 02:24:47;;;;;;;7.47;6.00;;;19.10;80.90;;;;;;5075369;28;20537;-72
2022/06/20 02:27:21;;;;;;;11.57;5.60;;;19.00;81.10;;;;;;5075315;28;20429;-72
2022/06/20 02:29:47;;;;;;;9.87;5.10;;;19.00;81.20;;;;;;5074480;28;20433;-71
2022/06/20 02:32:20;;;;;;;7.17;5.70;;;18.90;81.50;;;;;;5075480;28;20567;-71
2022/06/20 02:34:47;;;;;;;7.13;6.37;;;18.80;81.10;;;;;;5075361;28;20894;-71
2022/06/20 02:37:20;;;;;;;7.40;6.57;;;18.80;82.10;;;;;;5075670;28;20448;-73
2022/06/20 02:39:48;;;;;;;7.93;5.50;;;18.80;82.50;;;;;;5075420;28;20897;-69
2022/06/20 02:42:20;;;;;;;6.47;5.83;;;18.70;82.40;;;;;;5076034;28;20465;-69
2022/06/20 02:44:49;;;;;;;6.90;4.87;;;18.70;83.40;;;;;;5076125;28;20472;-69
2022/06/20 02:47:19;;;;;;;8.03;4.97;;;18.50;82.60;;;;;;5077120;28;20452;-68
2022/06/20 02:49:47;;;;;;;7.63;4.80;;;18.50;83.00;;;;;;5076214;28;20443;-68
2022/06/20 02:52:18;;;;;;;5.37;4.20;;;18.50;83.50;;;;;;5074412;28;20472;-69
2022/06/20 02:54:46;;;;;;;6.67;4.13;;;18.50;83.50;;;;;;5074067;28;20449;-69
2022/06/20 02:57:17;;;;;;;7.60;4.60;;;18.40;83.40;;;;;;5074473;28;20451;-69
2022/06/20 02:59:50;;;;;;;5.80;4.67;;;18.40;83.50;;;;;;5074223;28;20777;-68
2022/06/20 03:02:23;;;;;;;7.43;4.27;;;18.30;83.60;;;;;;5073985;28;20969;-68
2022/06/20 03:04:50;;;;;;;7.53;4.77;;;18.20;83.90;;;;;;5074195;28;20472;-69
2022/06/20 03:07:21;;;;;;;6.00;4.87;;;18.20;84.20;;;;;;5074148;28;20449;-68
2022/06/20 03:09:53;;;;;;;6.80;4.97;;;18.20;84.20;;;;;;5074164;28;20432;-68
2022/06/20 03:12:20;;;;;;;6.47;4.30;;;18.10;84.10;;;;;;5074083;28;20491;-68
2022/06/20 03:14:50;;;;;;;10.80;4.20;;;18.10;83.90;;;;;;5074241;28;20448;-68
2022/06/20 03:17:20;;;;;;;4.10;3.40;;;18.10;84.00;;;;;;5075118;28;20478;-69
2022/06/20 03:19:51;;;;;;;5.77;4.30;;;18.10;84.20;;;;;;5074569;28;20435;-68
2022/06/20 03:22:21;;;;;;;6.63;4.10;;;18.10;84.30;;;;;;5073659;28;21016;-69
2022/06/20 03:24:50;;;;;;;5.40;3.40;;;18.10;84.00;;;;;;5073417;28;21024;-68
2022/06/20 03:27:23;;;;;;;5.17;3.30;;;18.10;83.80;;;;;;5073962;28;20448;-68
2022/06/20 03:29:54;;;;;;;7.07;4.03;;;18.10;83.80;;;;;;5073850;28;20434;-68
2022/06/20 03:32:23;;;;;;;7.70;4.20;;;18.10;83.80;;;;;;5073786;28;20482;-69
2022/06/20 03:34:50;;;;;;;5.00;3.30;;;18.20;83.80;;;;;;5073773;28;20502;-68
2022/06/20 03:37:18;;;;;;;5.50;3.80;;;18.10;83.40;;;;;;5073335;28;20946;-68
2022/06/20 03:39:46;;;;;;;6.07;3.60;;;18.10;83.50;;;;;;5073594;28;20440;-68
2022/06/20 03:42:13;;;;;;;5.33;2.57;;;18.20;83.90;;;;;;5073492;28;20445;-69
2022/06/20 03:44:46;;;;;;;4.50;3.10;;;18.10;83.40;;;;;;5073094;28;21018;-68
2022/06/20 03:47:18;;;;;;;4.97;2.53;;;18.20;83.70;;;;;;5073659;28;20443;-68
2022/06/20 03:49:49;;;;;;;4.10;2.43;;;18.20;83.50;;;;;;5073393;28;20925;-68
2022/06/20 03:52:21;;;;;;;6.53;3.03;;;18.10;83.30;;;;;;5073773;28;20822;-68
2022/06/20 03:54:55;;;;;;;7.97;3.77;;;18.10;83.80;;;;;;5073701;28;20453;-68
2022/06/20 03:57:26;;;;;;;6.90;2.87;;;18.10;84.10;;;;;;5073756;28;20447;-68
2022/06/20 04:00:01;;;;;;;3.97;2.80;;;18.00;84.30;;;;;;5073433;28;20453;-68
2022/06/20 04:02:33;;;;;;;4.53;2.30;;;17.90;84.50;;;;;;5073396;28;20467;-68
2022/06/20 04:05:07;;;;;;;4.50;2.67;;;17.80;84.70;;;;;;5073359;28;20472;-68
2022/06/20 04:07:40;;;;;;;8.33;2.70;;;17.80;85.40;;;;;;5073534;28;20420;-68
2022/06/20 04:13:03;;;;;;;5.67;2.70;;;17.70;85.10;;;;;;5073216;28;20440;-68
2022/06/20 04:15:35;;;;;;;5.67;2.93;;;17.60;86.10;;;;;;5073334;28;20436;-68
2022/06/20 04:21:02;;;;;;;6.73;3.30;;;17.60;87.50;;;;;;5073216;28;20404;-68
2022/06/20 04:23:36;;;;;;;3.63;2.43;;;17.50;86.90;;;;;;5073292;28;20489;-68
2022/06/20 04:26:10;;;;;;;3.97;2.57;;;17.50;87.20;;;;;;5073222;28;20464;-68
2022/06/20 04:28:42;;;;;;;4.30;2.93;;;17.40;88.40;;;;;;5073259;28;20436;-69
2022/06/20 04:31:17;;;;;;;4.20;2.43;;;17.40;88.50;;;;;;5073268;28;20836;-68
2022/06/20 04:33:50;;;;;;;3.67;2.30;;;17.40;88.70;;;;;;5073016;28;20527;-68
2022/06/20 04:36:27;;;;;;;4.60;2.87;;;17.40;89.00;;;;;;5072960;28;20429;-68
2022/06/20 04:38:58;;;;;;;5.17;2.80;;;17.40;89.20;;;;;;5073182;28;20433;-68
2022/06/20 04:41:33;;;;;;;6.17;2.57;;;17.40;88.80;;;;;;5073200;28;20444;-68
2022/06/20 04:44:10;;;;;;;5.87;2.80;;;17.40;89.40;;;;;;5073234;28;20476;-68
2022/06/20 04:46:44;;;;;;;5.77;2.47;;;17.50;89.10;;;;;;5073017;28;20486;-68
2022/06/20 04:49:13;;;;;;;5.40;2.40;;;17.50;88.90;;;;;;5073127;28;20436;-68
2022/06/20 04:51:44;;;;;;;8.80;3.17;;;17.50;89.20;;;;;;5074066;28;20447;-68
2022/06/20 04:54:16;;;;;;;8.43;2.90;;;17.60;89.10;;;;;;5076270;28;20496;-69
2022/06/20 04:56:44;;;;;;;5.77;2.87;;;17.70;89.50;;;;;;5076641;28;20435;-68
2022/06/20 04:59:14;;;;;;;3.30;2.63;;;17.80;89.70;;;;;;5076734;28;20468;-68
2022/06/20 05:01:41;;;;;;;3.90;2.10;;;17.80;89.80;;;;;;5076768;28;20845;-68
2022/06/20 05:04:27;;;;;;;8.73;3.00;;;17.80;90.00;;;;;;5076433;28;20468;-69
2022/06/20 05:06:58;;;;;;;5.13;2.60;;;17.90;89.70;;;;;;5076315;28;21008;-68
2022/06/20 05:09:30;;;;;;;5.13;2.70;;;17.90;89.70;;;;;;5076706;28;20439;-68
2022/06/20 05:12:04;;;;;;;4.10;2.40;;;17.90;89.70;;;;;;5076251;28;20778;-69
2022/06/20 05:14:35;;;;;;;5.03;2.20;;;17.90;89.50;;;;;;5076381;28;20804;-69
2022/06/20 05:17:03;;;;;;;4.70;2.23;;;17.90;89.40;;;;;;5076719;28;20421;-68
2022/06/20 05:19:35;;;;;;;3.30;2.50;;;17.90;89.60;;;;;;5076050;28;20452;-68
2022/06/20 05:22:11;;;;;;;5.70;2.57;;;17.90;89.40;;;;;;5076618;28;20437;-69
2022/06/20 05:24:40;;;;;;;4.90;2.23;;;17.90;89.50;;;;;;5077968;28;20467;-68
2022/06/20 05:27:12;;;;;;;9.00;2.70;;;17.90;89.80;;;;;;5078181;28;20552;-69
2022/06/20 05:29:41;;;;;;;6.50;2.90;;;17.90;90.00;;;;;;5078719;28;20439;-69
2022/06/20 05:32:14;;;;;;;5.77;2.40;;;17.90;89.90;;;;;;5076037;28;20449;-70
2022/06/20 05:34:46;;;;;;;5.90;3.13;;;17.90;89.60;;;;;;5075988;28;20443;-70
2022/06/20 05:37:20;;;;;;;4.57;2.53;;;18.00;89.10;;;;;;5075992;28;20453;-70
2022/06/20 05:39:51;;;;;;;5.90;2.53;;;18.00;89.10;;;;;;5075948;28;20462;-69
2022/06/20 05:42:19;;;;;;;6.80;1.93;;;18.00;89.10;;;;;;5075661;28;20469;-70
2022/06/20 05:44:46;;;;;;;4.70;2.40;;;18.00;88.60;;;;;;5075718;28;20444;-70
2022/06/20 05:47:20;;;;;;;4.90;2.63;;;18.00;88.30;;;;;;5075759;28;20488;-70
2022/06/20 05:49:51;;;;;;;8.03;2.40;;;18.10;88.30;;;;;;5075694;28;20436;-70
2022/06/20 05:52:23;;;;;;;4.63;2.37;;;18.10;88.10;;;;;;5075526;28;20468;-70
2022/06/20 05:54:55;;;;;;;9.47;2.80;;;18.10;88.00;;;;;;5075894;28;20459;-70
2022/06/20 05:57:25;;;;;;;5.33;2.53;;;18.10;88.00;;;;;;5075764;28;20425;-70
2022/06/20 05:59:56;;;;;;;7.80;2.40;;;18.20;88.40;;;;;;5076036;28;20449;-70
2022/06/20 06:02:26;;;;;;;7.67;3.00;;;18.20;88.60;;;;;;5075280;28;20476;-70
2022/06/20 06:05:01;;;;;;;6.00;2.47;;;18.20;88.30;;;;;;5075056;28;20449;-70
2022/06/20 06:07:34;;;;;;;7.20;3.77;;;18.20;87.90;;;;;;5075724;28;20535;-70
2022/06/20 06:10:12;;;;;;;6.90;2.37;;;18.20;88.10;;;;;;5075266;28;20437;-69
2022/06/20 06:12:44;;;;;;;4.00;2.00;;;18.20;87.60;;;;;;5075237;28;20497;-70
2022/06/20 06:15:17;;;;;;;4.20;2.60;;;18.20;87.80;;;;;;5075266;28;20878;-70
2022/06/20 06:17:50;;;;;;;8.83;2.80;;;18.30;88.00;;;;;;5075440;28;20443;-71
2022/06/20 06:20:21;;;;;;;9.10;2.90;;;18.30;87.80;;;;;;5075366;28;20775;-70
2022/06/20 06:22:52;;;;;;;9.70;2.70;;;18.30;87.80;;;;;;5075251;28;20465;-70
2022/06/20 06:25:27;;;;;;;8.90;3.00;;;18.30;87.50;;;;;;5075292;28;20439;-70
2022/06/20 06:27:59;;;;;;;10.20;2.70;;;18.30;87.70;;;;;;5074947;28;20523;-70
2022/06/20 06:30:30;;;;;;;8.03;2.53;;;18.30;88.00;;;;;;5075106;28;20429;-70
2022/06/20 06:33:02;;;;;;;6.67;1.93;;;18.40;88.50;;;;;;5075280;28;20456;-70
2022/06/20 06:35:34;;;;;;;4.60;2.40;;;18.40;88.70;;;;;;5075364;28;20429;-70
2022/06/20 06:38:05;;;;;;;6.70;2.47;;;18.40;88.30;;;;;;5074811;28;20890;-70
2022/06/20 06:40:36;;;;;;;5.50;2.60;;;18.40;87.90;;;;;;5074477;28;20898;-70
2022/06/20 06:43:14;;;;;;;8.07;2.60;;;18.50;88.10;;;;;;5074409;28;20472;-69
2022/06/20 06:45:45;;;;;;;8.33;2.70;;;18.60;88.10;;;;;;5074420;28;20432;-69
2022/06/20 06:48:16;;;;;;;4.63;2.43;;;18.60;87.70;;;;;;5074089;28;20444;-69
2022/06/20 06:50:47;;;;;;;9.40;2.90;;;18.70;87.90;;;;;;5074333;28;20425;-69
2022/06/20 06:53:23;;;;;;;8.23;2.60;;;18.80;87.50;;;;;;5074256;28;20469;-69
2022/06/20 06:55:52;;;;;;;6.40;2.10;;;18.90;87.20;;;;;;5074406;28;20523;-69
2022/06/20 06:58:25;;;;;;;7.23;2.53;;;18.90;87.00;;;;;;5074323;28;20449;-69
2022/06/20 07:00:58;;;;;;;7.77;3.20;;;18.90;85.80;;;;;;5074672;28;20816;-69
2022/06/20 07:03:29;;;;;;;3.90;2.57;;;19.00;85.50;;;;;;5074436;28;20469;-69
2022/06/20 07:06:01;;;;;;;4.00;1.70;;;18.90;85.00;;;;;;5074210;28;20476;-69
2022/06/20 07:08:35;;;;;;;6.50;2.50;;;18.90;84.60;;;;;;5074309;28;20489;-69
2022/06/20 07:11:09;;;;;;;4.87;2.03;;;18.90;84.90;;;;;;5074103;28;20445;-69
2022/06/20 07:13:41;;;;;;;9.73;2.50;;;18.90;84.70;;;;;;5074195;28;20534;-70
2022/06/20 07:16:19;;;;;;;5.87;2.70;;;18.90;84.70;;;;;;5073853;28;20421;-70
2022/06/20 07:18:49;;;;;;;5.57;2.17;;;18.80;84.90;;;;;;5074046;28;20429;-71
2022/06/20 07:21:19;;;;;;;5.70;1.90;;;18.90;85.80;;;;;;5073886;28;20455;-70
2022/06/20 07:23:50;;;;;;;5.40;1.97;;;18.90;84.80;;;;;;5074078;28;20460;-70
2022/06/20 07:26:21;;;;;;;7.20;1.90;;;19.00;84.70;;;;;;5073884;28;20465;-70
2022/06/20 07:28:53;;;;;;;7.17;2.10;;;19.10;85.40;;;;;;5074699;28;20535;-69
2022/06/20 07:31:23;;;;;;;6.03;2.47;;;19.10;85.00;;;;;;5073600;28;20469;-72
2022/06/20 07:33:55;;;;;;;7.00;2.17;;;19.20;84.70;;;;;;5073620;28;20480;-72
2022/06/20 07:36:26;;;;;;;6.93;2.53;;;19.30;84.60;;;;;;5073875;28;20425;-72
2022/06/20 07:39:00;;;;;;;5.87;2.33;;;19.30;84.40;;;;;;5073834;28;20433;-73
2022/06/20 07:41:38;;;;;;;8.73;2.67;;;19.40;83.30;;;;;;5073836;28;20436;-73
2022/06/20 07:44:08;;;;;;;5.30;2.80;;;19.50;83.20;;;;;;5073932;28;20465;-73
2022/06/20 07:46:40;;;;;;;7.30;2.90;;;19.60;83.30;;;;;;5073758;28;20483;-73
2022/06/20 07:49:13;;;;;;;10.13;3.37;;;19.70;83.30;;;;;;5073914;28;20432;-73
2022/06/20 07:51:45;;;;;;;3.80;2.00;;;19.60;82.60;;;;;;5073815;28;20433;-72
2022/06/20 07:54:17;;;;;;;7.03;2.40;;;19.60;81.80;;;;;;5073359;28;20507;-72
2022/06/20 07:56:50;;;;;;;6.70;2.90;;;19.60;82.20;;;;;;5073980;28;20427;-69
2022/06/20 07:59:20;;;;;;;11.13;3.20;;;19.70;82.60;;;;;;5073844;28;20441;-69
2022/06/20 08:01:52;;;;;;;5.30;2.43;;;19.70;82.30;;;;;;5074229;28;20433;-71
2022/06/20 08:04:27;;;;;;;6.73;2.67;;;19.90;83.30;;;;;;5074230;28;20472;-71
2022/06/20 08:06:58;;;;;;;4.90;2.53;;;20.10;82.10;;;;;;5076002;28;20525;-72
2022/06/20 08:09:34;;;;;;;7.60;2.70;;;20.30;81.40;;;;;;5076513;28;20437;-71
2022/06/20 08:12:08;;;;;;;7.70;3.43;;;20.40;78.20;;;;;;5075940;28;20785;-71
2022/06/20 08:14:42;;;;;;;8.73;3.53;;;20.40;77.50;;;;;;5073459;28;20455;-71
2022/06/20 08:17:11;;;;;;;6.30;2.30;;;20.50;78.20;;;;;;5073617;28;20417;-71
2022/06/20 08:19:40;;;;;;;7.97;3.27;;;20.50;78.60;;;;;;5073550;28;20455;-71
2022/06/20 08:22:13;;;;;;;7.30;3.50;;;20.70;79.30;;;;;;5073095;28;20926;-71
2022/06/20 08:24:47;;;;;;;9.10;3.60;;;20.80;78.60;;;;;;5073618;28;20495;-71
2022/06/20 08:27:20;;;;;;;5.03;2.67;;;21.00;75.80;;;;;;5075580;28;20838;-71
2022/06/20 08:29:51;;;;;;;7.53;3.10;;;21.20;74.80;;;;;;5077701;28;20436;-71
2022/06/20 08:32:25;;;;;;;4.13;2.00;;;21.30;75.30;;;;;;5077479;28;20483;-71
2022/06/20 08:35:03;;;;;;;5.50;2.30;;;21.40;76.10;;;;;;5077584;28;20531;-71
2022/06/20 08:37:35;;;;;;;4.13;2.07;;;21.60;74.80;;;;;;5077136;28;20967;-71
2022/06/20 08:40:37;;;;;;;10.53;2.60;;;21.90;74.50;;;;;;5077361;28;20432;-71
2022/06/20 08:43:20;;;;;;;4.87;1.87;;;22.20;72.70;;;;;;5077152;28;20468;-72
2022/06/20 08:46:05;;;;;;;8.50;2.43;;;22.60;70.60;;;;;;5077365;28;20437;-72
2022/06/20 08:49:02;;;;;;;5.70;1.80;;;23.00;68.50;;;;;;5077219;28;20424;-71
2022/06/20 08:52:15;;;;;;;4.80;2.03;;;23.20;65.10;;;;;;5076719;28;20898;-71
2022/06/20 08:54:58;;;;;;;5.10;2.03;;;23.50;63.60;;;;;;5076681;28;20826;-71
2022/06/20 08:57:38;;;;;;;7.57;1.63;;;23.70;61.50;;;;;;5076975;28;20433;-71
2022/06/20 09:00:11;;;;;;;4.60;1.70;;;24.10;59.70;;;;;;5076961;28;20429;-71
2022/06/20 09:02:56;;;;;;;6.60;2.13;;;24.70;60.80;;;;;;5076485;28;20464;-71
2022/06/20 09:05:42;;;;;;;6.93;2.10;;;24.90;57.80;;;;;;5077165;28;20436;-71
2022/06/20 09:08:37;;;;;;;8.00;2.27;;;25.10;56.90;;;;;;5076954;28;20468;-70
2022/06/20 09:11:23;;;;;;;7.30;1.90;;;25.20;55.70;;;;;;5074316;28;20470;-70
2022/06/20 09:14:32;;;;;;;3.67;1.80;;;25.20;55.50;;;;;;5076533;28;20835;-70
2022/06/20 09:17:09;;;;;;;3.50;1.13;;;25.40;54.90;;;;;;5075234;28;20938;-72
2022/06/20 09:19:53;;;;;;;4.20;1.67;;;25.80;55.00;;;;;;5076553;28;20424;-72
2022/06/20 09:22:46;;;;;;;3.70;1.40;;;26.20;53.10;;;;;;5076575;28;20471;-71
2022/06/20 09:25:26;;;;;;;3.70;1.37;;;26.60;52.20;;;;;;5076184;28;20444;-71
2022/06/20 09:28:11;;;;;;;3.17;1.37;;;27.00;50.70;;;;;;5076169;28;20831;-71
2022/06/20 09:30:47;;;;;;;2.47;1.00;;;27.20;49.60;;;;;;5076795;28;20458;-72
2022/06/20 09:33:44;;;;;;;2.10;1.30;;;27.40;49.40;;;;;;5076531;28;20472;-71
2022/06/20 09:36:37;;;;;;;5.30;1.60;;;27.10;47.00;;;;;;5076696;28;20486;-71
2022/06/20 09:39:15;;;;;;;5.60;1.43;;;26.80;47.10;;;;;;5075725;28;20776;-71
2022/06/20 09:41:53;;;;;;;2.93;1.47;;;26.60;48.00;;;;;;5077345;28;20425;-71
2022/06/20 09:44:26;;;;;;;2.73;1.40;;;26.40;48.20;;;;;;5076064;28;20884;-71
2022/06/20 09:47:04;;;;;;;2.63;1.20;;;26.20;49.00;;;;;;5076129;28;20465;-71
2022/06/20 09:49:40;;;;;;;4.03;1.10;;;26.20;48.80;;;;;;5076218;28;20435;-70
2022/06/20 09:52:16;;;;;;;4.53;1.40;;;26.30;48.00;;;;;;5075984;28;20433;-71
2022/06/20 09:54:50;;;;;;;3.63;1.20;;;26.60;49.30;;;;;;5075686;28;20463;-71
2022/06/20 09:57:28;;;;;;;5.43;1.23;;;27.00;47.10;;;;;;5076138;28;20428;-71
2022/06/20 10:00:00;;;;;;;1.67;1.00;;;27.40;44.90;;;;;;5075866;28;20439;-71
2022/06/20 10:02:38;;;;;;;2.47;1.17;;;27.80;45.80;;;;;;5075449;28;21017;-71
2022/06/20 10:05:14;;;;;;;2.20;0.90;;;28.10;45.50;;;;;;5075727;28;20441;-72
2022/06/20 10:07:48;;;;;;;2.27;1.23;;;28.00;43.90;;;;;;5075800;28;20472;-71
2022/06/20 10:10:20;;;;;;;3.60;1.13;;;27.80;43.00;;;;;;5075671;28;20433;-71
2022/06/20 10:12:52;;;;;;;3.20;1.37;;;27.50;43.90;;;;;;5075311;28;21007;-71
2022/06/20 10:15:25;;;;;;;3.47;1.47;;;27.10;44.30;;;;;;5075386;28;20810;-71
2022/06/20 10:18:03;;;;;;;3.60;1.30;;;26.80;45.00;;;;;;5075678;28;20425;-70
2022/06/20 10:20:36;;;;;;;4.20;1.20;;;26.60;45.00;;;;;;5075848;28;20433;-70
2022/06/20 10:23:20;;;;;;;4.00;1.23;;;26.40;46.00;;;;;;5075115;28;20479;-70
2022/06/20 10:26:19;;;;;;;2.77;1.20;;;26.60;47.70;;;;;;5075547;28;20432;-70
2022/06/20 10:28:49;;;;;;;4.87;1.60;;;27.50;45.90;;;;;;5075418;28;20471;-72
2022/06/20 10:31:37;;;;;;;3.13;1.40;;;28.40;42.00;;;;;;5074881;28;20938;-71
2022/06/20 10:34:10;;;;;;;3.17;1.47;;;28.90;39.30;;;;;;5075169;28;20483;-71
2022/06/20 10:36:49;;;;;;;2.87;1.00;;;29.00;38.70;;;;;;5075456;28;20490;-71
2022/06/20 10:39:25;;;;;;;4.23;1.47;;;29.00;37.50;;;;;;5075464;28;20436;-72
2022/06/20 10:42:05;;;;;;;2.33;1.40;;;28.90;39.10;;;;;;5075291;28;20437;-72
2022/06/20 10:44:47;;;;;;;2.30;1.37;;;29.00;39.60;;;;;;5075639;28;20894;-72
2022/06/20 10:47:21;;;;;;;3.50;1.77;;;29.10;39.00;;;;;;5075013;28;20491;-72
2022/06/20 10:50:07;;;;;;;2.03;1.00;;;29.30;37.60;;;;;;5074653;28;20436;-72
2022/06/20 10:52:52;;;;;;;1.73;1.10;;;29.50;38.00;;;;;;5074933;28;20492;-72
2022/06/20 10:55:34;;;;;;;3.63;1.37;;;29.70;38.30;;;;;;5075007;28;20503;-70
2022/06/20 10:58:11;;;;;;;2.73;1.20;;;30.20;37.20;;;;;;5074863;28;20428;-70
2022/06/20 11:00:44;;;;;;;2.07;1.27;;;31.30;36.10;;;;;;5074784;28;20429;-70
2022/06/20 11:03:34;;;;;;;2.63;1.10;;;32.10;31.60;;;;;;5074740;28;20473;-71
2022/06/20 11:06:12;;;;;;;2.23;1.27;;;32.70;30.80;;;;;;5072214;28;20543;-72
2022/06/20 11:08:47;;;;;;;3.17;1.50;;;33.80;30.10;;;;;;5074332;28;20839;-71
2022/06/20 11:11:25;;;;;;;4.10;1.67;;;34.60;29.60;;;;;;5074658;28;20439;-71
2022/06/20 11:13:58;;;;;;;2.87;1.63;;;35.00;28.70;;;;;;5074412;28;20993;-71
2022/06/20 11:16:35;;;;;;;3.57;1.67;;;34.60;28.10;;;;;;5074517;28;20822;-71
2022/06/20 11:19:15;;;;;;;3.50;1.60;;;34.10;29.30;;;;;;5074185;28;20802;-72
2022/06/20 11:21:51;;;;;;;4.83;1.57;;;33.70;29.90;;;;;;5074347;28;20427;-72
2022/06/20 11:24:28;;;;;;;4.13;1.80;;;34.10;28.40;;;;;;5074323;28;20479;-72
2022/06/20 11:27:07;;;;;;;1.90;1.27;;;33.70;27.90;;;;;;5074313;28;20436;-71
2022/06/20 11:29:59;;;;;;;4.20;1.60;;;33.60;29.00;;;;;;5074502;28;20420;-71
2022/06/20 11:32:37;;;;;;;5.87;2.23;;;34.30;28.40;;;;;;5073926;28;20906;-72
2022/06/20 11:35:16;;;;;;;2.83;1.40;;;35.00;27.10;;;;;;5074375;28;20436;-72
2022/06/20 11:37:56;;;;;;;6.10;1.80;;;35.80;26.70;;;;;;5074168;28;20424;-71
2022/06/20 11:40:35;;;;;;;4.93;1.93;;;36.10;25.40;;;;;;5074046;28;20428;-71
2022/06/20 11:43:24;;;;;;;3.10;1.80;;;35.70;25.30;;;;;;5075037;28;20482;-71
2022/06/20 11:46:05;;;;;;;4.73;1.80;;;35.50;27.00;;;;;;5074250;28;20441;-71
2022/06/20 11:48:45;;;;;;;3.83;1.67;;;35.80;25.50;;;;;;5074022;28;20460;-72
2022/06/20 11:51:18;;;;;;;5.17;1.90;;;35.90;25.70;;;;;;5073991;28;20431;-71
2022/06/20 11:53:57;;;;;;;3.83;1.83;;;36.20;25.00;;;;;;5073816;28;20478;-71
2022/06/20 11:56:30;;;;;;;3.63;2.00;;;36.60;24.70;;;;;;5074062;28;20432;-71
2022/06/20 11:59:08;;;;;;;4.90;2.10;;;37.20;24.60;;;;;;5073885;28;20183;-71
2022/06/20 12:01:42;;;;;;;5.60;1.90;;;37.50;25.00;;;;;;5073670;28;20186;-71
2022/06/20 12:04:15;;;;;;;3.97;1.80;;;37.40;23.80;;;;;;5073822;28;20221;-71
2022/06/20 12:06:50;;;;;;;4.40;1.70;;;37.40;23.60;;;;;;5073936;28;20204;-71
2022/06/20 12:09:25;;;;;;;5.03;2.07;;;36.80;24.40;;;;;;5073785;28;20209;-71
2022/06/20 12:12:07;;;;;;;2.50;1.93;;;36.40;24.50;;;;;;5073780;28;20657;-71
2022/06/20 12:14:44;;;;;;;3.33;1.73;;;36.30;24.40;;;;;;5073884;28;20428;-72
2022/06/20 12:17:22;;;;;;;3.80;1.73;;;36.30;22.60;;;;;;5073661;28;20428;-71
2022/06/20 12:23:24;;;;;;;4.60;1.90;;;36.50;24.80;;;;;;5073346;28;20953;-71
2022/06/20 12:25:58;;;;;;;1.70;1.60;;;37.30;22.80;;;;;;5073767;28;20475;-71
2022/06/20 12:28:26;;;;;;;5.35;1.90;;;38.10;22.50;;;;;;5073581;28;20209;-71
2022/06/20 12:30:58;;;;;;;3.33;1.80;;;38.30;21.20;;;;;;5073690;28;20205;-72
2022/06/20 12:33:26;;;;;;;4.17;1.90;;;38.30;22.40;;;;;;5073436;28;20608;-72
2022/06/20 12:35:58;;;;;;;3.05;1.73;;;38.70;21.30;;;;;;5073907;28;20563;-72
2022/06/20 12:38:30;;;;;;;4.22;1.95;;;39.20;21.40;;;;;;5073628;28;20194;-72
2022/06/20 12:41:01;;;;;;;3.42;1.80;;;39.40;21.00;;;;;;5073684;28;20192;-72
2022/06/20 12:43:42;;;;;;;7.65;2.03;;;39.40;20.30;;;;;;5073672;28;20228;-72
2022/06/20 12:46:46;;;;;;;4.32;2.05;;;39.10;19.90;;;;;;5073575;28;20559;-72
2022/06/20 12:49:31;;;;;;;3.15;1.70;;;38.60;21.30;;;;;;5064107;28;20229;-72
2022/06/20 12:52:00;;;;;;;3.92;1.88;;;38.70;22.50;;;;;;5074206;28;20202;-72
2022/06/20 12:54:59;;;;;;;2.90;1.85;;;39.30;22.20;;;;;;5073831;28;20220;-72
2022/06/20 12:57:46;;;;;;;2.92;1.85;;;39.60;20.50;;;;;;5074732;28;20186;-72
2022/06/20 13:00:35;;;;;;;2.92;2.15;;;38.80;21.00;;;;;;5075306;28;20640;-72
2022/06/20 13:03:26;;;;;;;4.10;1.90;;;37.90;20.80;;;;;;5066349;28;20568;-72
2022/06/20 13:06:20;;;;;;;2.70;2.00;;;37.40;22.00;;;;;;5075031;28;20190;-72
2022/06/20 13:09:03;;;;;;;3.55;2.20;;;38.00;21.30;;;;;;5073798;28;20687;-72
2022/06/20 13:11:40;;;;;;;2.85;1.90;;;39.10;22.20;;;;;;5073399;28;20190;-72
2022/06/20 13:14:39;;;;;;;1.92;1.60;;;40.30;21.20;;;;;;5076454;28;20225;-72
2022/06/20 13:17:23;;;;;;;5.50;1.90;;;41.50;19.00;;;;;;5076992;28;20186;-72
2022/06/20 13:20:04;;;;;;;2.92;1.98;;;42.10;17.60;;;;;;5077174;28;20280;-72
2022/06/20 13:22:40;;;;;;;4.45;1.60;;;42.40;17.00;;;;;;5076983;28;20225;-72
2022/06/20 13:25:24;;;;;;;3.53;2.00;;;42.70;17.60;;;;;;5077153;28;20185;-72
2022/06/20 13:27:57;;;;;;;2.17;1.83;;;42.90;16.50;;;;;;5076873;28;20217;-72
2022/06/20 13:30:47;;;;;;;3.60;1.80;;;42.80;17.00;;;;;;5076985;28;20190;-72
2022/06/20 13:33:37;;;;;;;3.20;2.00;;;43.00;17.10;;;;;;5077097;28;20228;-73